createdAt,value
2018-02-18T00:01:12.915Z,12.90
2018-02-18T00:03:40.400Z,13.20
2018-02-18T00:06:07.961Z,13.15
2018-02-18T00:08:35.448Z,12.77
2018-02-18T00:11:02.957Z,12.48
2018-02-18T00:13:30.452Z,12.93
2018-02-18T00:15:58.351Z,12.63
2018-02-18T00:18:25.836Z,12.80
2018-02-18T00:20:53.346Z,12.27
2018-02-18T00:23:20.921Z,11.68
2018-02-18T00:25:48.435Z,12.20
2018-02-18T00:28:15.929Z,11.77
2018-02-18T00:30:43.426Z,12.32
2018-02-18T00:33:10.936Z,11.38
2018-02-18T00:35:38.834Z,11.60
2018-02-18T00:38:06.348Z,12.25
2018-02-18T00:40:33.852Z,12.30
2018-02-18T00:43:01.820Z,12.23
2018-02-18T00:45:29.314Z,13.30
2018-02-18T00:47:56.815Z,11.65
2018-02-18T00:50:24.309Z,13.10
2018-02-18T00:52:51.820Z,12.00
2018-02-18T00:55:19.704Z,12.95
2018-02-18T00:57:47.209Z,13.85
2018-02-18T01:00:14.695Z,13.57
2018-02-18T01:02:42.296Z,11.95
2018-02-18T01:05:09.793Z,12.02
2018-02-18T01:07:37.472Z,12.60
2018-02-18T01:10:04.970Z,13.68
2018-02-18T01:12:32.486Z,13.25
2018-02-18T01:14:59.975Z,12.80
2018-02-18T01:17:27.945Z,12.70
2018-02-18T01:19:55.836Z,14.13
2018-02-18T01:22:23.344Z,12.73
2018-02-18T01:24:50.837Z,12.05
2018-02-18T01:27:18.354Z,12.57
2018-02-18T01:29:45.844Z,12.20
2018-02-18T01:32:13.352Z,12.95
2018-02-18T01:34:40.839Z,12.80
2018-02-18T01:37:08.350Z,13.32
2018-02-18T01:39:35.840Z,13.98
2018-02-18T01:42:03.350Z,12.82
2018-02-18T01:44:30.847Z,13.32
2018-02-18T01:46:58.352Z,13.75
2018-02-18T01:49:25.847Z,13.98
2018-02-18T01:51:53.444Z,13.23
2018-02-18T01:54:21.333Z,13.95
2018-02-18T01:56:49.236Z,14.52
2018-02-18T01:59:16.747Z,14.00
2018-02-18T02:01:44.241Z,15.07
2018-02-18T02:04:12.158Z,14.00
2018-02-18T02:06:39.687Z,13.75
2018-02-18T02:09:07.187Z,13.93
2018-02-18T02:11:34.682Z,16.33
2018-02-18T02:14:02.229Z,14.40
2018-02-18T02:16:29.716Z,14.10
2018-02-18T02:18:57.225Z,14.25
2018-02-18T02:21:24.742Z,14.93
2018-02-18T02:23:52.253Z,16.12
2018-02-18T02:26:19.757Z,15.40
2018-02-18T02:28:47.745Z,13.50
2018-02-18T02:31:15.239Z,15.63
2018-02-18T02:33:42.759Z,15.13
2018-02-18T02:36:10.274Z,15.50
2018-02-18T02:38:37.779Z,15.40
2018-02-18T02:41:05.286Z,14.98
2018-02-18T02:43:32.805Z,15.75
2018-02-18T02:46:00.302Z,15.15
2018-02-18T02:48:27.818Z,16.60
2018-02-18T02:50:55.714Z,13.95
2018-02-18T02:53:23.225Z,14.77
2018-02-18T02:55:50.722Z,15.63
2018-02-18T02:58:18.233Z,14.77
2018-02-18T03:00:45.723Z,16.52
2018-02-18T03:03:13.236Z,17.17
2018-02-18T03:05:41.125Z,15.35
2018-02-18T03:08:09.023Z,15.55
2018-02-18T03:10:36.573Z,14.93
2018-02-18T03:13:04.481Z,15.50
2018-02-18T03:15:31.982Z,15.70
2018-02-18T03:17:59.489Z,16.65
2018-02-18T03:20:27.077Z,15.85
2018-02-18T03:22:54.985Z,15.77
2018-02-18T03:25:22.482Z,17.67
2018-02-18T03:27:49.988Z,16.48
2018-02-18T03:30:17.894Z,16.65
2018-02-18T03:32:45.469Z,16.30
2018-02-18T03:35:13.013Z,16.45
2018-02-18T03:37:40.896Z,15.98
2018-02-18T03:40:08.795Z,17.30
2018-02-18T03:42:36.350Z,16.10
2018-02-18T03:45:04.258Z,19.02
2018-02-18T03:47:31.757Z,17.60
2018-02-18T03:49:59.270Z,17.02
2018-02-18T03:52:27.158Z,17.90
2018-02-18T03:54:55.060Z,17.92
2018-02-18T03:57:22.544Z,18.23
2018-02-18T03:59:50.054Z,17.10
2018-02-18T04:02:17.549Z,17.23
2018-02-18T04:04:45.525Z,17.25
2018-02-18T04:07:13.418Z,18.10
2018-02-18T04:09:40.934Z,17.75
2018-02-18T04:12:08.423Z,19.05
2018-02-18T04:14:35.924Z,18.30
2018-02-18T04:17:03.818Z,19.17
2018-02-18T04:19:31.356Z,17.75
2018-02-18T04:21:58.853Z,18.35
2018-02-18T04:24:26.365Z,18.90
2018-02-18T04:26:53.852Z,17.58
2018-02-18T04:29:21.361Z,17.48
2018-02-18T04:31:48.856Z,17.87
2018-02-18T04:34:16.373Z,17.65
2018-02-18T04:36:43.873Z,17.10
2018-02-18T04:39:11.416Z,17.85
2018-02-18T04:41:38.901Z,19.37
2018-02-18T04:44:06.810Z,17.73
2018-02-18T04:46:34.299Z,19.25
2018-02-18T04:49:01.805Z,19.17
2018-02-18T04:51:29.299Z,19.45
2018-02-18T04:53:57.200Z,21.12
2018-02-18T04:56:24.698Z,17.45
2018-02-18T04:58:52.193Z,18.98
2018-02-18T05:01:19.705Z,18.02
2018-02-18T05:03:47.314Z,17.77
2018-02-18T05:06:14.789Z,20.17
2018-02-18T05:08:42.275Z,20.15
2018-02-18T05:11:09.877Z,22.15
2018-02-18T05:13:37.764Z,20.25
2018-02-18T05:16:05.282Z,19.87
2018-02-18T05:18:32.777Z,20.02
2018-02-18T05:21:00.297Z,20.75
2018-02-18T05:23:27.784Z,20.37
2018-02-18T05:25:55.293Z,19.23
2018-02-18T05:28:22.789Z,20.25
2018-02-18T05:30:50.694Z,20.12
2018-02-18T05:33:18.190Z,21.10
2018-02-18T05:35:45.701Z,19.67
2018-02-18T05:38:14.089Z,19.92
2018-02-18T05:40:41.987Z,20.25
2018-02-18T05:43:09.471Z,20.48
2018-02-18T05:45:36.976Z,22.00
2018-02-18T05:48:04.469Z,18.30
2018-02-18T05:50:31.986Z,20.33
2018-02-18T05:52:59.472Z,22.50
2018-02-18T05:55:26.980Z,20.00
2018-02-18T05:57:54.472Z,22.65
2018-02-18T06:00:22.378Z,19.65
2018-02-18T06:02:49.864Z,22.35
2018-02-18T06:05:17.377Z,22.60
2018-02-18T06:07:45.270Z,21.30
2018-02-18T06:10:12.791Z,22.33
2018-02-18T06:12:40.281Z,21.98
2018-02-18T06:15:07.784Z,21.15
2018-02-18T06:17:35.678Z,23.60
2018-02-18T06:20:03.190Z,22.42
2018-02-18T06:22:30.685Z,22.20
2018-02-18T06:24:58.196Z,23.92
2018-02-18T06:27:25.693Z,23.52
2018-02-18T06:29:53.188Z,21.40
2018-02-18T06:32:20.706Z,22.00
2018-02-18T06:34:48.205Z,23.95
2018-02-18T06:37:15.707Z,20.37
2018-02-18T06:39:43.196Z,20.80
2018-02-18T06:42:11.181Z,22.92
2018-02-18T06:44:38.745Z,21.00
2018-02-18T06:47:06.653Z,20.95
2018-02-18T06:49:34.149Z,20.60
2018-02-18T06:52:01.658Z,24.02
2018-02-18T06:54:29.553Z,22.65
2018-02-18T06:56:57.460Z,24.15
2018-02-18T06:59:25.001Z,21.73
2018-02-18T07:01:52.903Z,21.37
2018-02-18T07:04:20.397Z,22.98
2018-02-18T07:06:47.910Z,21.33
2018-02-18T07:09:15.409Z,22.73
2018-02-18T07:11:42.955Z,23.62
2018-02-18T07:14:10.537Z,23.52
2018-02-18T07:16:38.448Z,23.33
2018-02-18T07:19:05.948Z,23.02
2018-02-18T07:21:33.547Z,23.27
2018-02-18T07:24:01.037Z,21.95
2018-02-18T07:26:29.034Z,22.35
2018-02-18T07:28:56.548Z,23.30
2018-02-18T07:31:24.062Z,22.27
2018-02-18T07:33:51.954Z,23.92
2018-02-18T07:36:19.455Z,22.15
2018-02-18T07:38:46.954Z,23.80
2018-02-18T07:41:14.470Z,22.70
2018-02-18T07:43:41.964Z,24.00
2018-02-18T07:46:09.477Z,22.52
2018-02-18T07:48:36.967Z,22.55
2018-02-18T07:51:04.879Z,21.87
2018-02-18T07:53:32.376Z,22.40
2018-02-18T07:55:59.865Z,22.67
2018-02-18T07:58:27.372Z,22.35
2018-02-18T08:00:54.865Z,22.50
2018-02-18T08:03:22.373Z,22.10
2018-02-18T08:05:49.882Z,23.17
2018-02-18T08:08:17.458Z,20.58
2018-02-18T08:10:45.026Z,23.12
2018-02-18T08:13:12.528Z,21.20
2018-02-18T08:15:40.007Z,23.50
2018-02-18T08:18:07.504Z,22.50
2018-02-18T08:20:34.989Z,19.90
2018-02-18T08:23:02.992Z,21.02
2018-02-18T08:25:30.485Z,23.27
2018-02-18T08:27:57.997Z,23.70
2018-02-18T08:30:25.484Z,21.48
2018-02-18T08:32:53.375Z,23.12
2018-02-18T08:35:21.345Z,21.23
2018-02-18T08:37:49.257Z,22.83
2018-02-18T08:40:16.763Z,39.28
2018-02-18T08:42:44.264Z,21.52
2018-02-18T08:45:12.149Z,22.85
2018-02-18T08:47:40.130Z,24.10
2018-02-18T08:50:08.027Z,20.25
2018-02-18T08:52:35.538Z,21.75
2018-02-18T08:55:03.028Z,21.60
2018-02-18T08:57:30.621Z,23.77
2018-02-18T08:59:58.518Z,22.10
2018-02-18T09:02:26.032Z,21.10
2018-02-18T09:04:53.521Z,21.75
2018-02-18T09:07:21.034Z,20.60
2018-02-18T09:09:48.530Z,20.70
2018-02-18T09:12:16.042Z,21.50
2018-02-18T09:14:43.536Z,21.25
2018-02-18T09:17:11.053Z,20.60
2018-02-18T09:19:38.542Z,20.90
2018-02-18T09:22:06.062Z,22.62
2018-02-18T09:24:33.543Z,21.00
2018-02-18T09:27:01.052Z,23.55
2018-02-18T09:29:28.561Z,20.45
2018-02-18T09:31:56.449Z,21.40
2018-02-18T09:34:23.982Z,20.65
2018-02-18T09:36:51.886Z,23.30
2018-02-18T09:39:19.791Z,21.62
2018-02-18T09:41:47.281Z,20.90
2018-02-18T09:44:14.787Z,20.92
2018-02-18T09:46:42.267Z,21.50
2018-02-18T09:49:10.169Z,20.83
2018-02-18T09:51:37.662Z,18.73
2018-02-18T09:54:05.169Z,19.35
2018-02-18T09:56:32.657Z,19.05
2018-02-18T09:59:00.556Z,21.98
2018-02-18T10:01:28.044Z,21.98
2018-02-18T10:03:55.544Z,21.73
2018-02-18T10:06:23.028Z,20.17
2018-02-18T10:08:50.532Z,19.67
2018-02-18T10:11:18.434Z,19.20
2018-02-18T10:13:45.949Z,20.00
2018-02-18T10:16:13.441Z,18.92
2018-02-18T10:18:42.058Z,19.30
2018-02-18T10:21:09.549Z,18.58
2018-02-18T10:23:37.077Z,18.70
2018-02-18T10:26:04.560Z,19.27
2018-02-18T10:28:32.471Z,19.70
2018-02-18T10:30:59.993Z,17.60
2018-02-18T10:33:27.609Z,18.17
2018-02-18T10:35:55.125Z,18.40
2018-02-18T10:38:22.655Z,18.48
2018-02-18T10:40:50.198Z,18.45
2018-02-18T10:43:18.109Z,20.20
2018-02-18T10:45:45.693Z,19.05
2018-02-18T10:48:13.201Z,18.30
2018-02-18T10:50:40.702Z,19.62
2018-02-18T10:53:08.209Z,17.40
2018-02-18T10:55:35.853Z,18.92
2018-02-18T10:58:03.413Z,17.83
2018-02-18T11:00:31.318Z,20.02
2018-02-18T11:02:58.820Z,19.25
2018-02-18T11:05:26.861Z,17.90
2018-02-18T11:07:54.341Z,17.60
2018-02-18T11:10:21.844Z,18.70
2018-02-18T11:12:49.338Z,17.15
2018-02-18T11:15:16.845Z,18.35
2018-02-18T11:17:44.379Z,17.05
2018-02-18T11:20:11.873Z,17.85
2018-02-18T11:22:39.758Z,18.10
2018-02-18T11:25:07.265Z,16.42
2018-02-18T11:27:34.758Z,16.92
2018-02-18T11:30:02.275Z,16.25
2018-02-18T11:32:29.916Z,17.70
2018-02-18T11:34:57.383Z,17.67
2018-02-18T11:37:25.044Z,15.85
2018-02-18T11:39:52.556Z,15.23
2018-02-18T11:42:20.509Z,16.08
2018-02-18T11:44:48.021Z,16.33
2018-02-18T11:47:15.736Z,14.65
2018-02-18T11:49:43.241Z,15.30
2018-02-18T11:52:11.189Z,12.82
2018-02-18T11:54:38.701Z,15.07
2018-02-18T11:57:06.700Z,14.25
2018-02-18T11:59:34.213Z,14.18
2018-02-18T12:02:01.736Z,16.10
2018-02-18T12:04:29.255Z,15.45
2018-02-18T12:06:56.836Z,15.15
2018-02-18T12:09:24.331Z,15.50
2018-02-18T12:11:52.492Z,15.10
2018-02-18T12:14:19.981Z,14.25
2018-02-18T12:16:47.696Z,14.00
2018-02-18T12:19:15.196Z,14.77
2018-02-18T12:21:42.845Z,15.90
2018-02-18T12:24:10.336Z,14.23
2018-02-18T12:26:37.941Z,14.05
2018-02-18T12:29:05.433Z,13.57
2018-02-18T12:31:33.481Z,13.70
2018-02-18T12:34:00.972Z,14.82
2018-02-18T12:36:28.570Z,14.00
2018-02-18T12:38:56.061Z,16.42
2018-02-18T12:41:23.824Z,16.65
2018-02-18T12:43:51.333Z,16.95
2018-02-18T12:46:19.071Z,14.95
2018-02-18T12:48:46.585Z,15.60
2018-02-18T12:51:14.258Z,15.45
2018-02-18T12:53:41.752Z,15.43
2018-02-18T12:56:09.290Z,14.40
2018-02-18T12:58:36.786Z,15.10
2018-02-18T13:01:04.402Z,14.80
2018-02-18T13:03:31.954Z,16.70
2018-02-18T13:05:59.937Z,15.40
2018-02-18T13:08:27.825Z,14.25
2018-02-18T13:10:55.925Z,13.55
2018-02-18T13:13:23.414Z,14.55
2018-02-18T13:15:51.048Z,13.80
2018-02-18T13:18:19.025Z,14.65
2018-02-18T13:20:46.999Z,15.75
2018-02-18T13:23:14.495Z,14.73
2018-02-18T13:25:42.033Z,15.27
2018-02-18T13:28:09.626Z,16.05
2018-02-18T13:30:37.528Z,15.85
2018-02-18T13:33:05.007Z,15.65
2018-02-18T13:35:32.613Z,16.95
2018-02-18T13:38:00.083Z,15.40
2018-02-18T13:40:27.592Z,13.48
2018-02-18T13:42:55.477Z,15.90
2018-02-18T13:45:23.361Z,15.20
2018-02-18T13:47:50.870Z,14.73
2018-02-18T13:50:18.353Z,13.45
2018-02-18T13:52:45.866Z,13.20
2018-02-18T13:55:13.835Z,14.80
2018-02-18T13:59:49.243Z,16.67
2018-02-18T14:02:16.749Z,16.20
2018-02-18T14:04:44.250Z,16.60
2018-02-18T14:07:11.765Z,15.80
2018-02-18T14:09:39.261Z,15.77
2018-02-18T14:12:06.774Z,15.00
2018-02-18T14:14:34.651Z,16.87
2018-02-18T14:17:02.561Z,16.05
2018-02-18T14:19:30.128Z,17.05
2018-02-18T14:21:57.642Z,17.98
2018-02-18T14:24:25.131Z,17.87
2018-02-18T14:26:52.641Z,16.80
2018-02-18T14:29:20.155Z,15.73
2018-02-18T14:31:47.669Z,15.52
2018-02-18T14:34:15.641Z,15.13
2018-02-18T14:36:43.210Z,14.93
2018-02-18T14:39:10.656Z,16.83
2018-02-18T14:41:50.101Z,14.00
2018-02-18T14:44:29.381Z,13.27
2018-02-18T14:47:09.376Z,14.48
2018-02-18T14:49:48.604Z,15.57
2018-02-18T14:52:28.478Z,14.60
2018-02-18T14:55:21.658Z,14.30
2018-02-18T14:57:49.170Z,15.02
2018-02-18T15:00:16.661Z,13.95
2018-02-18T15:02:44.166Z,14.48
2018-02-18T15:05:11.657Z,12.07
2018-02-18T15:07:39.177Z,13.52
2018-02-18T15:10:06.674Z,12.65
2018-02-18T15:12:34.165Z,12.65
2018-02-18T15:15:01.676Z,13.98
2018-02-18T15:17:29.161Z,13.68
2018-02-18T15:19:57.067Z,14.43
2018-02-18T15:22:24.566Z,14.10
2018-02-18T15:24:52.096Z,15.70
2018-02-18T15:27:19.980Z,15.05
2018-02-18T15:29:47.876Z,15.88
2018-02-18T15:32:15.365Z,14.50
2018-02-18T15:34:42.872Z,13.57
2018-02-18T15:37:10.359Z,15.07
2018-02-18T15:39:38.267Z,15.32
2018-02-18T15:42:05.765Z,15.50
2018-02-18T15:44:33.280Z,14.27
2018-02-18T15:47:01.173Z,13.75
2018-02-18T15:49:29.072Z,15.52
2018-02-18T15:51:56.565Z,16.15
2018-02-18T15:54:24.059Z,15.52
2018-02-18T15:56:51.545Z,14.30
2018-02-18T15:59:19.049Z,14.95
2018-02-18T16:01:47.463Z,12.75
2018-02-18T16:04:15.009Z,13.98
2018-02-18T16:06:42.488Z,14.82
2018-02-18T16:09:10.029Z,16.35
2018-02-18T16:11:37.917Z,13.80
2018-02-18T16:14:05.818Z,15.45
2018-02-18T16:16:33.311Z,15.98
2018-02-18T16:19:00.822Z,13.25
2018-02-18T16:21:28.318Z,15.65
2018-02-18T16:23:55.821Z,16.05
2018-02-18T16:26:23.317Z,16.35
2018-02-18T16:28:50.821Z,16.87
2018-02-18T16:31:18.710Z,14.80
2018-02-18T16:33:46.264Z,17.35
2018-02-18T16:36:14.176Z,16.08
2018-02-18T16:38:41.667Z,15.38
2018-02-18T16:41:09.181Z,15.00
2018-02-18T16:43:36.757Z,15.68
2018-02-18T16:46:04.768Z,14.57
2018-02-18T16:48:32.252Z,13.65
2018-02-18T16:50:59.811Z,15.52
2018-02-18T16:53:27.659Z,14.75
2018-02-18T16:55:55.165Z,14.48
2018-02-18T16:58:22.661Z,16.15
2018-02-18T17:00:50.163Z,16.15
2018-02-18T17:03:17.662Z,15.10
2018-02-18T17:05:45.172Z,15.20
2018-02-18T17:08:12.652Z,14.63
2018-02-18T17:10:40.161Z,15.15
2018-02-18T17:13:08.045Z,15.50
2018-02-18T17:15:35.557Z,15.85
2018-02-18T17:18:03.040Z,15.43
2018-02-18T17:20:30.540Z,14.75
2018-02-18T17:22:58.029Z,21.50
2018-02-18T17:25:25.929Z,18.58
2018-02-18T17:27:53.408Z,23.70
2018-02-18T17:30:20.912Z,15.07
2018-02-18T17:32:48.402Z,16.12
2018-02-18T17:35:15.914Z,16.17
2018-02-18T17:37:43.413Z,15.02
2018-02-18T17:40:10.918Z,16.30
2018-02-18T17:42:38.405Z,16.10
2018-02-18T17:45:06.313Z,15.55
2018-02-18T17:47:33.853Z,17.05
2018-02-18T17:50:01.766Z,15.10
2018-02-18T17:52:29.252Z,15.30
2018-02-18T17:54:56.760Z,16.05
2018-02-18T17:57:24.282Z,15.57
2018-02-18T17:59:51.785Z,16.15
2018-02-18T18:02:19.320Z,17.00
2018-02-18T18:04:46.858Z,17.80
2018-02-18T18:07:14.764Z,16.67
2018-02-18T18:09:42.309Z,18.02
2018-02-18T18:12:10.217Z,19.27
2018-02-18T18:14:37.711Z,17.30
2018-02-18T18:17:05.242Z,17.92
2018-02-18T18:19:32.734Z,18.90
2018-02-18T18:22:00.410Z,19.00
2018-02-18T18:24:28.262Z,16.83
2018-02-18T18:26:56.161Z,17.67
2018-02-18T18:29:23.702Z,18.25
2018-02-18T18:31:51.632Z,20.40
2018-02-18T18:34:19.126Z,17.62
2018-02-18T18:36:46.648Z,18.52
2018-02-18T18:39:14.138Z,17.42
2018-02-18T18:41:41.637Z,18.85
2018-02-18T18:44:09.129Z,18.23
2018-02-18T18:46:36.734Z,18.05
2018-02-18T18:49:04.606Z,18.50
2018-02-18T18:51:32.245Z,19.27
2018-02-18T18:53:59.727Z,17.60
2018-02-18T18:56:27.272Z,18.98
2018-02-18T18:58:54.765Z,19.85
2018-02-18T19:01:22.381Z,19.50
2018-02-18T19:03:49.870Z,18.77
2018-02-18T19:06:17.517Z,31.58
2018-02-18T19:08:45.040Z,24.15
2018-02-18T19:11:12.554Z,46.28
2018-02-18T19:13:40.065Z,23.55
2018-02-18T19:16:07.563Z,20.50
2018-02-18T19:18:35.054Z,20.65
2018-02-18T19:21:02.961Z,20.12
2018-02-18T19:23:30.445Z,21.55
2018-02-18T19:25:57.959Z,23.92
2018-02-18T19:28:25.546Z,20.20
2018-02-18T19:30:53.041Z,20.05
2018-02-18T19:33:20.550Z,20.12
2018-02-18T19:35:48.057Z,18.67
2018-02-18T19:38:15.955Z,19.55
2018-02-18T19:40:43.462Z,18.75
2018-02-18T19:43:10.969Z,20.17
2018-02-18T19:45:38.896Z,19.40
2018-02-18T19:48:06.406Z,20.08
2018-02-18T19:50:34.021Z,20.35
2018-02-18T19:53:01.531Z,18.60
2018-02-18T19:55:29.031Z,19.85
2018-02-18T19:57:56.546Z,20.40
2018-02-18T20:00:24.036Z,19.10
2018-02-18T20:02:51.536Z,18.92
2018-02-18T20:05:19.025Z,19.35
2018-02-18T20:07:46.926Z,19.58
2018-02-18T20:10:14.417Z,20.17
2018-02-18T20:12:41.921Z,19.10
2018-02-18T20:15:09.412Z,20.23
2018-02-18T20:17:37.308Z,20.30
2018-02-18T20:20:05.198Z,22.20
2018-02-18T20:22:32.705Z,19.60
2018-02-18T20:25:00.206Z,21.10
2018-02-18T20:27:27.785Z,19.17
2018-02-18T20:29:55.230Z,20.77
2018-02-18T20:32:22.750Z,21.30
2018-02-18T20:34:50.237Z,20.40
2018-02-18T20:37:17.741Z,20.30
2018-02-18T20:39:45.224Z,21.48
2018-02-18T20:42:12.749Z,21.95
2018-02-18T20:44:40.241Z,22.05
2018-02-18T20:47:07.763Z,13.65
2018-02-18T20:49:35.645Z,19.40
2018-02-18T20:52:03.609Z,19.83
2018-02-18T20:54:31.097Z,20.67
2018-02-18T20:56:59.011Z,21.48
2018-02-18T20:59:26.497Z,19.65
2018-02-18T21:01:53.985Z,19.85
2018-02-18T21:04:21.508Z,21.00
2018-02-18T21:06:49.004Z,23.30
2018-02-18T21:09:16.508Z,20.95
2018-02-18T21:11:44.001Z,22.83
2018-02-18T21:14:11.512Z,21.70
2018-02-18T21:16:39.001Z,22.17
2018-02-18T21:19:06.518Z,21.60
2018-02-18T21:21:34.008Z,23.27
2018-02-18T21:24:01.511Z,22.48
2018-02-18T21:26:28.995Z,21.62
2018-02-18T21:28:56.496Z,21.85
2018-02-18T21:31:24.382Z,22.02
2018-02-18T21:33:51.894Z,22.80
2018-02-18T21:36:19.389Z,23.50
2018-02-18T21:38:46.901Z,23.95
2018-02-18T21:41:14.385Z,22.02
2018-02-18T21:43:41.898Z,23.30
2018-02-18T21:46:09.385Z,22.67
2018-02-18T21:48:37.390Z,22.37
2018-02-18T21:51:04.881Z,22.37
2018-02-18T21:53:32.383Z,22.55
2018-02-18T21:55:59.877Z,23.23
2018-02-18T21:58:27.789Z,23.65
2018-02-18T22:00:55.294Z,23.10
2018-02-18T22:03:22.804Z,23.17
2018-02-18T22:05:50.690Z,23.83
2018-02-18T22:08:18.589Z,23.02
2018-02-18T22:10:46.073Z,22.27
2018-02-18T22:13:13.586Z,22.08
2018-02-18T22:15:41.073Z,24.17
2018-02-18T22:18:08.963Z,24.42
2018-02-18T22:20:36.843Z,24.65
2018-02-18T22:23:04.749Z,22.62
2018-02-18T22:25:32.253Z,23.15
2018-02-18T22:27:59.749Z,23.20
2018-02-18T22:30:27.661Z,24.55
2018-02-18T22:32:55.157Z,24.27
2018-02-18T22:35:22.664Z,23.17
2018-02-18T22:37:50.157Z,21.87
2018-02-18T22:40:18.056Z,25.80
2018-02-18T22:42:45.554Z,22.83
2018-02-18T22:45:13.055Z,23.90
2018-02-18T22:47:40.545Z,24.42
2018-02-18T22:50:08.451Z,24.60
2018-02-18T22:52:35.948Z,24.83
2018-02-18T22:55:03.453Z,23.45
2018-02-18T22:57:30.935Z,24.08
2018-02-18T22:59:58.837Z,23.70
2018-02-18T23:02:26.321Z,23.08
2018-02-18T23:04:54.301Z,24.12
2018-02-18T23:07:21.793Z,26.62
2018-02-18T23:09:49.316Z,25.30
2018-02-18T23:12:17.200Z,23.10
2018-02-18T23:14:44.699Z,26.33
2018-02-18T23:17:12.185Z,23.42
2018-02-18T23:19:39.704Z,25.70
2018-02-18T23:22:07.589Z,23.17
2018-02-18T23:24:35.098Z,24.83
2018-02-18T23:27:02.585Z,27.83
2018-02-18T23:29:30.093Z,25.80
2018-02-18T23:31:57.977Z,26.02
2018-02-18T23:34:25.882Z,26.33
2018-02-18T23:36:53.377Z,25.15
2018-02-18T23:39:20.893Z,25.35
2018-02-18T23:41:48.775Z,24.20
2018-02-18T23:44:16.673Z,25.12
2018-02-18T23:46:44.160Z,24.08
2018-02-18T23:49:11.682Z,24.52
2018-02-18T23:51:39.260Z,25.42
2018-02-18T23:54:07.240Z,25.27
2018-02-18T23:56:35.146Z,25.23
2018-02-18T23:59:02.651Z,25.77
